createdAt,value
2023-04-15T00:00:56.342Z,608.00
2023-04-15T00:01:56.362Z,607.00
2023-04-15T00:02:56.553Z,608.00
2023-04-15T00:03:56.389Z,608.00
2023-04-15T00:04:56.294Z,610.00
2023-04-15T00:05:56.289Z,609.00
2023-04-15T00:06:56.286Z,609.00
2023-04-15T00:07:56.286Z,608.00
2023-04-15T00:08:56.343Z,609.00
2023-04-15T00:09:56.274Z,608.00
2023-04-15T00:10:56.282Z,609.00
2023-04-15T00:11:56.262Z,608.00
2023-04-15T00:12:56.248Z,608.00
2023-04-15T00:13:56.250Z,607.00
2023-04-15T00:14:56.231Z,607.00
2023-04-15T00:15:56.220Z,606.00
2023-04-15T00:16:56.365Z,605.00
2023-04-15T00:17:56.244Z,607.00
2023-04-15T00:18:56.203Z,608.00
2023-04-15T00:19:56.211Z,607.00
2023-04-15T00:20:56.273Z,607.00
2023-04-15T00:21:56.327Z,607.00
2023-04-15T00:22:56.389Z,605.00
2023-04-15T00:23:56.443Z,605.00
2023-04-15T00:24:56.487Z,605.00
2023-04-15T00:25:56.567Z,603.00
2023-04-15T00:26:56.615Z,600.00
2023-04-15T00:27:56.641Z,596.00
2023-04-15T00:28:56.710Z,598.00
2023-04-15T00:29:56.748Z,599.00
2023-04-15T00:30:56.805Z,600.00
2023-04-15T00:31:56.847Z,601.00
2023-04-15T00:32:56.950Z,601.00
2023-04-15T00:33:56.952Z,601.00
2023-04-15T00:34:56.996Z,603.00
2023-04-15T00:35:57.043Z,605.00
2023-04-15T00:36:57.097Z,605.00
2023-04-15T00:37:57.143Z,602.00
2023-04-15T00:38:57.208Z,601.00
2023-04-15T00:39:57.233Z,601.00
2023-04-15T00:40:57.279Z,601.00
2023-04-15T00:41:57.343Z,599.00
2023-04-15T00:42:57.405Z,599.00
2023-04-15T00:43:57.433Z,601.00
2023-04-15T00:44:57.478Z,602.00
2023-04-15T00:45:57.545Z,603.00
2023-04-15T00:46:57.590Z,607.00
2023-04-15T00:47:57.676Z,605.00
2023-04-15T00:48:57.855Z,604.00
2023-04-15T00:49:57.728Z,604.00
2023-04-15T00:50:57.777Z,601.00
2023-04-15T00:51:57.826Z,600.00
2023-04-15T00:52:57.882Z,598.00
2023-04-15T00:53:57.932Z,598.00
2023-04-15T00:54:57.999Z,598.00
2023-04-15T00:55:58.030Z,597.00
2023-04-15T00:56:58.077Z,597.00
2023-04-15T00:57:58.127Z,598.00
2023-04-15T00:58:58.641Z,596.00
2023-04-15T00:59:58.237Z,596.00
2023-04-15T01:00:58.323Z,598.00
2023-04-15T01:01:58.459Z,597.00
2023-04-15T01:02:58.515Z,596.00
2023-04-15T01:03:58.557Z,596.00
2023-04-15T01:04:58.499Z,599.00
2023-04-15T01:05:58.813Z,600.00
2023-04-15T01:06:58.571Z,600.00
2023-04-15T01:07:58.626Z,601.00
2023-04-15T01:08:59.109Z,597.00
2023-04-15T01:09:58.716Z,595.00
2023-04-15T01:10:58.775Z,593.00
2023-04-15T01:11:58.827Z,593.00
2023-04-15T01:12:58.852Z,594.00
2023-04-15T01:13:58.907Z,595.00
2023-04-15T01:14:58.987Z,598.00
2023-04-15T01:15:59.122Z,600.00
2023-04-15T01:16:59.068Z,599.00
2023-04-15T01:17:59.149Z,597.00
2023-04-15T01:18:59.400Z,595.00
2023-04-15T01:19:59.211Z,595.00
2023-04-15T01:20:59.265Z,593.00
2023-04-15T01:21:59.306Z,594.00
2023-04-15T01:22:59.360Z,595.00
2023-04-15T01:23:59.401Z,594.00
2023-04-15T01:24:59.445Z,597.00
2023-04-15T01:25:59.496Z,599.00
2023-04-15T01:26:59.551Z,597.00
2023-04-15T01:27:59.590Z,595.00
2023-04-15T01:28:59.911Z,595.00
2023-04-15T01:29:59.698Z,596.00
2023-04-15T01:30:59.773Z,595.00
2023-04-15T01:31:59.787Z,593.00
2023-04-15T01:32:59.893Z,593.00
2023-04-15T01:33:59.885Z,592.00
2023-04-15T01:34:59.941Z,592.00
2023-04-15T01:35:59.990Z,593.00
2023-04-15T01:37:00.031Z,592.00
2023-04-15T01:38:00.134Z,591.00
2023-04-15T01:39:00.341Z,592.00
2023-04-15T01:40:00.261Z,593.00
2023-04-15T01:41:00.235Z,592.00
2023-04-15T01:42:00.281Z,593.00
2023-04-15T01:43:00.332Z,592.00
2023-04-15T01:44:00.385Z,590.00
2023-04-15T01:45:00.433Z,589.00
2023-04-15T01:46:00.481Z,588.00
2023-04-15T01:47:00.583Z,587.00
2023-04-15T01:48:00.631Z,589.00
2023-04-15T01:49:00.718Z,590.00
2023-04-15T01:50:00.659Z,590.00
2023-04-15T01:51:00.706Z,589.00
2023-04-15T01:52:00.767Z,591.00
2023-04-15T01:53:00.803Z,590.00
2023-04-15T01:54:00.855Z,589.00
2023-04-15T01:55:00.913Z,589.00
2023-04-15T01:56:00.962Z,590.00
2023-04-15T01:57:01.019Z,590.00
2023-04-15T01:58:01.061Z,591.00
2023-04-15T01:59:01.317Z,591.00
2023-04-15T02:00:01.157Z,591.00
2023-04-15T02:01:01.260Z,591.00
2023-04-15T02:02:01.303Z,591.00
2023-04-15T02:03:01.445Z,592.00
2023-04-15T02:04:01.445Z,593.00
2023-04-15T02:05:01.431Z,593.00
2023-04-15T02:06:01.462Z,593.00
2023-04-15T02:07:01.703Z,591.00
2023-04-15T02:08:01.567Z,591.00
2023-04-15T02:09:01.875Z,590.00
2023-04-15T02:10:01.670Z,588.00
2023-04-15T02:11:01.704Z,587.00
2023-04-15T02:12:01.833Z,585.00
2023-04-15T02:13:01.813Z,586.00
2023-04-15T02:14:01.890Z,587.00
2023-04-15T02:15:01.922Z,590.00
2023-04-15T02:16:02.058Z,589.00
2023-04-15T02:17:02.027Z,589.00
2023-04-15T02:18:02.101Z,588.00
2023-04-15T02:19:02.301Z,590.00
2023-04-15T02:20:02.164Z,586.00
2023-04-15T02:21:02.218Z,586.00
2023-04-15T02:22:02.269Z,585.00
2023-04-15T02:23:02.323Z,585.00
2023-04-15T02:24:02.371Z,587.00
2023-04-15T02:25:02.423Z,588.00
2023-04-15T02:26:02.463Z,587.00
2023-04-15T02:27:02.507Z,588.00
2023-04-15T02:28:02.560Z,588.00
2023-04-15T02:29:02.831Z,586.00
2023-04-15T02:30:02.669Z,585.00
2023-04-15T02:31:02.707Z,587.00
2023-04-15T02:32:02.807Z,588.00
2023-04-15T02:33:02.870Z,588.00
2023-04-15T02:34:02.863Z,587.00
2023-04-15T02:35:02.946Z,589.00
2023-04-15T02:36:02.968Z,589.00
2023-04-15T02:37:04.008Z,588.00
2023-04-15T02:38:03.069Z,587.00
2023-04-15T02:39:03.450Z,585.00
2023-04-15T02:40:03.172Z,586.00
2023-04-15T02:41:03.222Z,587.00
2023-04-15T02:42:03.292Z,584.00
2023-04-15T02:43:03.342Z,582.00
2023-04-15T02:44:03.390Z,581.00
2023-04-15T02:45:03.451Z,578.00
2023-04-15T02:46:03.517Z,577.00
2023-04-15T02:47:03.551Z,579.00
2023-04-15T02:48:03.609Z,576.00
2023-04-15T02:49:03.648Z,574.00
2023-04-15T02:50:03.704Z,571.00
2023-04-15T02:51:03.794Z,573.00
2023-04-15T02:52:03.805Z,576.00
2023-04-15T02:53:03.846Z,578.00
2023-04-15T02:54:03.900Z,580.00
2023-04-15T02:55:03.956Z,583.00
2023-04-15T02:56:04.001Z,583.00
2023-04-15T02:57:04.053Z,582.00
2023-04-15T02:58:04.118Z,582.00
2023-04-15T02:59:04.178Z,585.00
2023-04-15T03:00:04.220Z,584.00
2023-04-15T03:01:04.293Z,583.00
2023-04-15T03:02:04.361Z,584.00
2023-04-15T03:03:04.537Z,585.00
2023-04-15T03:04:04.617Z,583.00
2023-04-15T03:05:04.488Z,581.00
2023-04-15T03:06:04.530Z,579.00
2023-04-15T03:07:04.615Z,577.00
2023-04-15T03:08:04.639Z,576.00
2023-04-15T03:09:04.700Z,574.00
2023-04-15T03:10:04.734Z,575.00
2023-04-15T03:11:04.794Z,576.00
2023-04-15T03:12:04.859Z,579.00
2023-04-15T03:13:04.899Z,577.00
2023-04-15T03:14:04.953Z,576.00
2023-04-15T03:15:05.005Z,574.00
2023-04-15T03:16:05.054Z,576.00
2023-04-15T03:17:05.075Z,574.00
2023-04-15T03:18:05.102Z,575.00
2023-04-15T03:19:05.145Z,576.00
2023-04-15T03:20:05.285Z,576.00
2023-04-15T03:21:05.205Z,575.00
2023-04-15T03:22:05.242Z,576.00
2023-04-15T03:23:05.322Z,578.00
2023-04-15T03:24:05.347Z,578.00
2023-04-15T03:25:05.396Z,577.00
2023-04-15T03:26:05.450Z,575.00
2023-04-15T03:27:05.499Z,574.00
2023-04-15T03:28:05.542Z,575.00
2023-04-15T03:29:05.860Z,576.00
2023-04-15T03:30:05.639Z,578.00
2023-04-15T03:31:05.732Z,578.00
2023-04-15T03:32:05.739Z,576.00
2023-04-15T03:33:05.788Z,576.00
2023-04-15T03:34:05.842Z,575.00
2023-04-15T03:35:05.889Z,576.00
2023-04-15T03:36:05.931Z,577.00
2023-04-15T03:37:05.981Z,575.00
2023-04-15T03:38:06.050Z,574.00
2023-04-15T03:39:06.106Z,574.00
2023-04-15T03:40:06.122Z,574.00
2023-04-15T03:41:06.168Z,572.00
2023-04-15T03:42:06.213Z,571.00
2023-04-15T03:43:06.266Z,570.00
2023-04-15T03:44:06.322Z,571.00
2023-04-15T03:45:06.388Z,572.00
2023-04-15T03:46:06.439Z,573.00
2023-04-15T03:47:06.469Z,572.00
2023-04-15T03:48:16.099Z,573.00
2023-04-15T03:49:06.521Z,571.00
2023-04-15T03:50:06.511Z,571.00
2023-04-15T03:51:06.504Z,574.00
2023-04-15T03:52:06.504Z,576.00
2023-04-15T03:53:06.492Z,579.00
2023-04-15T03:54:06.491Z,579.00
2023-04-15T03:55:06.500Z,579.00
2023-04-15T03:56:06.473Z,579.00
2023-04-15T03:57:06.463Z,578.00
2023-04-15T03:58:06.451Z,579.00
2023-04-15T03:59:06.445Z,581.00
2023-04-15T04:00:06.436Z,582.00
2023-04-15T04:01:06.441Z,582.00
2023-04-15T04:02:06.496Z,582.00
2023-04-15T04:03:06.638Z,583.00
2023-04-15T04:04:06.488Z,584.00
2023-04-15T04:05:06.411Z,584.00
2023-04-15T04:06:06.413Z,582.00
2023-04-15T04:07:06.394Z,580.00
2023-04-15T04:08:06.387Z,580.00
2023-04-15T04:09:06.425Z,580.00
2023-04-15T04:10:06.375Z,583.00
2023-04-15T04:11:06.392Z,581.00
2023-04-15T04:12:06.359Z,579.00
2023-04-15T04:13:06.348Z,577.00
2023-04-15T04:14:06.371Z,580.00
2023-04-15T04:15:06.425Z,582.00
2023-04-15T04:16:06.571Z,581.00
2023-04-15T04:17:06.598Z,579.00
2023-04-15T04:18:06.596Z,578.00
2023-04-15T04:19:06.650Z,576.00
2023-04-15T04:20:06.718Z,576.00
2023-04-15T04:21:06.771Z,574.00
2023-04-15T04:22:06.831Z,575.00
2023-04-15T04:23:06.886Z,575.00
2023-04-15T04:24:06.946Z,576.00
2023-04-15T04:25:06.995Z,576.00
2023-04-15T04:26:07.049Z,575.00
2023-04-15T04:27:07.136Z,572.00
2023-04-15T04:28:07.167Z,571.00
2023-04-15T04:29:07.221Z,569.00
2023-04-15T04:30:07.295Z,570.00
2023-04-15T04:31:07.338Z,572.00
2023-04-15T04:32:07.466Z,572.00
2023-04-15T04:33:07.451Z,572.00
2023-04-15T04:34:07.518Z,572.00
2023-04-15T04:35:07.574Z,574.00
2023-04-15T04:36:07.636Z,575.00
2023-04-15T04:37:07.690Z,572.00
2023-04-15T04:38:07.736Z,570.00
2023-04-15T04:39:07.808Z,567.00
2023-04-15T04:40:07.862Z,567.00
2023-04-15T04:41:07.913Z,566.00
2023-04-15T04:42:07.989Z,568.00
2023-04-15T04:43:08.048Z,569.00
2023-04-15T04:44:08.085Z,570.00
2023-04-15T04:45:08.140Z,572.00
2023-04-15T04:46:08.240Z,570.00
2023-04-15T04:47:08.253Z,569.00
2023-04-15T04:48:08.313Z,567.00
2023-04-15T04:49:08.360Z,565.00
2023-04-15T04:50:08.409Z,567.00
2023-04-15T04:51:08.470Z,566.00
2023-04-15T04:52:08.529Z,567.00
2023-04-15T04:53:08.583Z,568.00
2023-04-15T04:54:08.641Z,569.00
2023-04-15T04:55:08.767Z,570.00
2023-04-15T04:56:08.752Z,571.00
2023-04-15T04:57:08.806Z,571.00
2023-04-15T04:58:08.871Z,571.00
2023-04-15T04:59:08.934Z,572.00
2023-04-15T05:00:09.032Z,574.00
2023-04-15T05:01:09.055Z,575.00
2023-04-15T05:02:09.128Z,578.00
2023-04-15T05:03:09.401Z,579.00
2023-04-15T05:04:09.371Z,579.00
2023-04-15T05:05:09.249Z,579.00
2023-04-15T05:06:09.299Z,578.00
2023-04-15T05:07:09.351Z,577.00
2023-04-15T05:08:09.426Z,579.00
2023-04-15T05:09:09.454Z,579.00
2023-04-15T05:10:09.510Z,580.00
2023-04-15T05:11:09.571Z,576.00
2023-04-15T05:12:09.620Z,573.00
2023-04-15T05:13:09.769Z,573.00
2023-04-15T05:14:09.737Z,571.00
2023-04-15T05:15:09.824Z,571.00
2023-04-15T05:16:09.894Z,569.00
2023-04-15T05:17:09.901Z,567.00
2023-04-15T05:18:09.974Z,566.00
2023-04-15T05:19:10.018Z,565.00
2023-04-15T05:20:10.072Z,567.00
2023-04-15T05:21:10.129Z,568.00
2023-04-15T05:22:10.206Z,570.00
2023-04-15T05:23:10.243Z,572.00
2023-04-15T05:24:10.301Z,570.00
2023-04-15T05:25:10.359Z,568.00
2023-04-15T05:26:10.416Z,567.00
2023-04-15T05:27:10.471Z,567.00
2023-04-15T05:28:10.534Z,566.00
2023-04-15T05:29:10.589Z,563.00
2023-04-15T05:30:12.778Z,563.00
2023-04-15T05:31:10.712Z,564.00
2023-04-15T05:32:10.625Z,564.00
2023-04-15T05:33:10.623Z,564.00
2023-04-15T05:34:10.624Z,563.00
2023-04-15T05:35:10.617Z,565.00
2023-04-15T05:36:10.611Z,565.00
2023-04-15T05:37:10.594Z,567.00
2023-04-15T05:38:10.594Z,566.00
2023-04-15T05:39:10.664Z,567.00
2023-04-15T05:40:10.600Z,569.00
2023-04-15T05:41:10.572Z,570.00
2023-04-15T05:42:10.573Z,570.00
2023-04-15T05:43:10.562Z,570.00
2023-04-15T05:44:10.557Z,569.00
2023-04-15T05:45:10.541Z,570.00
2023-04-15T05:46:10.570Z,571.00
2023-04-15T05:47:10.551Z,572.00
2023-04-15T05:48:10.535Z,572.00
2023-04-15T05:49:10.520Z,572.00
2023-04-15T05:50:10.508Z,570.00
2023-04-15T05:51:10.521Z,568.00
2023-04-15T05:52:10.500Z,565.00
2023-04-15T05:53:11.473Z,565.00
2023-04-15T05:54:10.575Z,567.00
2023-04-15T05:55:10.609Z,569.00
2023-04-15T05:56:10.646Z,564.00
2023-04-15T05:57:10.683Z,560.00
2023-04-15T05:58:10.687Z,556.00
2023-04-15T05:59:10.726Z,551.00
2023-04-15T06:00:10.981Z,549.00
2023-04-15T06:01:10.772Z,547.00
2023-04-15T06:02:10.800Z,550.00
2023-04-15T06:03:10.875Z,559.00
2023-04-15T06:04:10.884Z,567.00
2023-04-15T06:05:10.954Z,574.00
2023-04-15T06:06:10.922Z,584.00
2023-04-15T06:07:10.948Z,596.00
2023-04-15T06:08:10.942Z,606.00
2023-04-15T06:09:10.944Z,615.00
2023-04-15T06:10:10.970Z,628.00
2023-04-15T06:11:11.028Z,641.00
2023-04-15T06:12:11.061Z,711.00
2023-04-15T06:13:11.108Z,719.00
2023-04-15T06:14:11.163Z,723.00
2023-04-15T06:15:11.171Z,737.00
2023-04-15T06:16:11.268Z,758.00
2023-04-15T06:17:11.199Z,780.00
2023-04-15T06:18:11.220Z,792.00
2023-04-15T06:19:11.239Z,807.00
2023-04-15T06:20:11.213Z,822.00
2023-04-15T06:21:11.214Z,830.00
2023-04-15T06:22:11.258Z,837.00
2023-04-15T06:23:11.301Z,849.00
2023-04-15T06:24:11.364Z,862.00
2023-04-15T06:25:11.427Z,872.00
2023-04-15T06:26:11.505Z,879.00
2023-04-15T06:27:11.557Z,882.00
2023-04-15T06:28:11.611Z,891.00
2023-04-15T06:29:11.663Z,907.00
2023-04-15T06:30:11.697Z,927.00
2023-04-15T06:31:11.779Z,941.00
2023-04-15T06:32:11.801Z,952.00
2023-04-15T06:33:11.849Z,960.00
2023-04-15T06:34:11.883Z,970.00
2023-04-15T06:35:11.940Z,980.00
2023-04-15T06:36:11.961Z,993.00
2023-04-15T06:37:11.984Z,1003.00
2023-04-15T06:38:12.004Z,1016.00
2023-04-15T06:39:12.032Z,1026.00
2023-04-15T06:40:12.056Z,1034.00
2023-04-15T06:41:12.103Z,1042.00
2023-04-15T06:42:12.139Z,1051.00
2023-04-15T06:43:12.173Z,1061.00
2023-04-15T06:44:12.202Z,1073.00
2023-04-15T06:45:12.229Z,1086.00
2023-04-15T06:46:12.336Z,1094.00
2023-04-15T06:47:12.292Z,1105.00
2023-04-15T06:48:12.317Z,1116.00
2023-04-15T06:49:12.361Z,1131.00
2023-04-15T06:50:12.377Z,1140.00
2023-04-15T06:51:12.429Z,1150.00
2023-04-15T06:52:12.427Z,1165.00
2023-04-15T06:53:12.455Z,1178.00
2023-04-15T06:54:12.473Z,1192.00
2023-04-15T06:55:12.498Z,1206.00
2023-04-15T06:56:12.526Z,1217.00
2023-04-15T06:57:12.549Z,1224.00
2023-04-15T06:58:12.577Z,1240.00
2023-04-15T06:59:12.591Z,1250.00
2023-04-15T07:00:12.610Z,1259.00
2023-04-15T07:01:12.690Z,1269.00
2023-04-15T07:02:12.784Z,1274.00
2023-04-15T07:03:12.749Z,1289.00
2023-04-15T07:04:12.742Z,1315.00
2023-04-15T07:05:12.744Z,1330.00
2023-04-15T07:06:12.770Z,1340.00
2023-04-15T07:07:12.860Z,1339.00
2023-04-15T07:08:12.817Z,1240.00
2023-04-15T07:09:12.866Z,1164.00
2023-04-15T07:10:12.937Z,1142.00
2023-04-15T07:11:12.988Z,1117.00
2023-04-15T07:12:13.041Z,1052.00
2023-04-15T07:13:13.102Z,1033.00
2023-04-15T07:14:13.130Z,1032.00
2023-04-15T07:15:13.159Z,1027.00
2023-04-15T07:16:13.206Z,1021.00
2023-04-15T07:17:13.337Z,1002.00
2023-04-15T07:18:13.156Z,868.00
2023-04-15T07:19:13.183Z,852.00
2023-04-15T07:20:13.234Z,779.00
2023-04-15T07:21:13.261Z,730.00
2023-04-15T07:22:13.280Z,705.00
2023-04-15T07:23:13.370Z,675.00
2023-04-15T07:24:13.362Z,632.00
2023-04-15T07:25:13.371Z,625.00
2023-04-15T07:26:13.384Z,620.00
2023-04-15T07:27:13.395Z,618.00
2023-04-15T07:28:13.398Z,622.00
2023-04-15T07:29:13.400Z,629.00
2023-04-15T07:30:13.421Z,636.00
2023-04-15T07:31:13.465Z,651.00
2023-04-15T07:32:13.505Z,660.00
2023-04-15T07:33:13.553Z,667.00
2023-04-15T07:34:13.606Z,671.00
2023-04-15T07:35:13.643Z,674.00
2023-04-15T07:36:13.663Z,679.00
2023-04-15T07:37:13.689Z,689.00
2023-04-15T07:38:13.700Z,698.00
2023-04-15T07:39:13.736Z,700.00
2023-04-15T07:40:13.738Z,705.00
2023-04-15T07:41:13.800Z,716.00
2023-04-15T07:42:13.856Z,728.00
2023-04-15T07:43:13.892Z,756.00
2023-04-15T07:44:13.940Z,777.00
2023-04-15T07:45:13.947Z,810.00
2023-04-15T07:46:14.005Z,842.00
2023-04-15T07:47:13.971Z,859.00
2023-04-15T07:48:13.973Z,871.00
2023-04-15T07:49:13.968Z,884.00
2023-04-15T07:50:13.962Z,897.00
2023-04-15T07:51:13.973Z,911.00
2023-04-15T07:52:14.019Z,925.00
2023-04-15T07:53:14.078Z,939.00
2023-04-15T07:54:14.142Z,953.00
2023-04-15T07:55:14.203Z,961.00
2023-04-15T07:56:14.221Z,966.00
2023-04-15T07:57:14.281Z,972.00
2023-04-15T07:58:14.324Z,982.00
2023-04-15T07:59:14.389Z,991.00
2023-04-15T08:00:14.451Z,1006.00
2023-04-15T08:01:14.518Z,1022.00
2023-04-15T08:02:14.685Z,1034.00
2023-04-15T08:03:14.783Z,1045.00
2023-04-15T08:04:14.818Z,1054.00
2023-04-15T08:05:14.846Z,1063.00
2023-04-15T08:06:14.815Z,1075.00
2023-04-15T08:07:14.869Z,1085.00
2023-04-15T08:08:14.923Z,1093.00
2023-04-15T08:09:14.970Z,1105.00
2023-04-15T08:10:15.022Z,1119.00
2023-04-15T08:11:15.104Z,1136.00
2023-04-15T08:12:15.128Z,1156.00
2023-04-15T08:13:15.167Z,1172.00
2023-04-15T08:14:15.212Z,1181.00
2023-04-15T08:15:15.256Z,1185.00
2023-04-15T08:16:15.301Z,1193.00
2023-04-15T08:17:15.500Z,1207.00
2023-04-15T08:18:15.371Z,1218.00
2023-04-15T08:19:15.392Z,1227.00
2023-04-15T08:20:15.440Z,1240.00
2023-04-15T08:21:15.459Z,1254.00
2023-04-15T08:22:16.084Z,1269.00
2023-04-15T08:23:15.490Z,1282.00
2023-04-15T08:24:15.476Z,1294.00
2023-04-15T08:25:15.487Z,1303.00
2023-04-15T08:26:15.469Z,1307.00
2023-04-15T08:27:15.500Z,985.00
2023-04-15T08:28:15.459Z,969.00
2023-04-15T08:29:15.449Z,971.00
2023-04-15T08:30:15.432Z,1021.00
2023-04-15T08:31:15.531Z,1033.00
2023-04-15T08:32:15.436Z,1050.00
2023-04-15T08:33:15.437Z,1106.00
2023-04-15T08:34:15.398Z,1134.00
2023-04-15T08:35:15.404Z,1146.00
2023-04-15T08:36:15.387Z,1153.00
2023-04-15T08:37:15.401Z,1169.00
2023-04-15T08:38:15.392Z,1188.00
2023-04-15T08:39:15.372Z,1209.00
2023-04-15T08:40:15.368Z,1226.00
2023-04-15T08:41:15.359Z,1241.00
2023-04-15T08:42:15.364Z,1251.00
2023-04-15T08:43:15.375Z,1257.00
2023-04-15T08:44:15.414Z,1260.00
2023-04-15T08:45:15.473Z,1262.00
2023-04-15T08:46:15.535Z,1262.00
2023-04-15T08:47:15.583Z,1267.00
2023-04-15T08:48:15.616Z,1267.00
2023-04-15T08:49:15.664Z,1266.00
2023-04-15T08:50:15.709Z,1114.00
2023-04-15T08:51:15.766Z,1133.00
2023-04-15T08:52:15.820Z,1136.00
2023-04-15T08:53:15.874Z,1163.00
2023-04-15T08:54:15.920Z,1177.00
2023-04-15T08:55:15.981Z,1191.00
2023-04-15T08:56:16.057Z,1202.00
2023-04-15T08:57:16.063Z,1210.00
2023-04-15T08:58:16.092Z,1214.00
2023-04-15T08:59:16.157Z,1218.00
2023-04-15T09:00:16.163Z,1225.00
2023-04-15T09:01:16.228Z,1236.00
2023-04-15T09:02:16.245Z,1247.00
2023-04-15T09:03:16.343Z,1258.00
2023-04-15T09:04:16.325Z,1270.00
2023-04-15T09:05:16.312Z,1281.00
2023-04-15T09:06:16.340Z,1291.00
2023-04-15T09:07:16.370Z,1298.00
2023-04-15T09:08:16.409Z,1311.00
2023-04-15T09:09:16.408Z,1324.00
2023-04-15T09:10:16.428Z,1335.00
2023-04-15T09:11:17.405Z,1349.00
2023-04-15T09:12:16.453Z,1361.00
2023-04-15T09:13:16.449Z,1372.00
2023-04-15T09:14:16.443Z,1386.00
2023-04-15T09:15:16.471Z,1398.00
2023-04-15T09:16:16.462Z,1411.00
2023-04-15T09:17:16.426Z,1421.00
2023-04-15T09:18:16.415Z,1430.00
2023-04-15T09:19:16.409Z,1438.00
2023-04-15T09:20:16.412Z,1450.00
2023-04-15T09:21:16.400Z,1460.00
2023-04-15T09:22:16.391Z,1467.00
2023-04-15T09:23:16.379Z,1474.00
2023-04-15T09:24:16.403Z,1479.00
2023-04-15T09:25:16.376Z,1488.00
2023-04-15T09:26:16.358Z,1497.00
2023-04-15T09:27:16.356Z,1503.00
2023-04-15T09:28:16.346Z,1509.00
2023-04-15T09:29:16.342Z,1517.00
2023-04-15T09:30:16.341Z,1535.00
2023-04-15T09:31:16.373Z,1549.00
2023-04-15T09:32:16.342Z,1554.00
2023-04-15T09:33:16.313Z,1563.00
2023-04-15T09:34:16.307Z,1568.00
2023-04-15T09:35:16.307Z,1572.00
2023-04-15T09:36:16.303Z,1584.00
2023-04-15T09:37:28.997Z,1597.00
2023-04-15T09:38:16.282Z,1610.00
2023-04-15T09:39:16.271Z,1620.00
2023-04-15T09:40:16.361Z,1627.00
2023-04-15T09:41:16.260Z,1516.00
2023-04-15T09:42:16.262Z,1203.00
2023-04-15T09:43:16.243Z,1197.00
2023-04-15T09:44:16.240Z,1128.00
2023-04-15T09:45:16.243Z,1068.00
2023-04-15T09:46:16.266Z,1014.00
2023-04-15T09:47:16.256Z,997.00
2023-04-15T09:48:16.214Z,1041.00
2023-04-15T09:49:16.227Z,944.00
2023-04-15T09:50:16.216Z,961.00
2023-04-15T09:51:16.187Z,963.00
2023-04-15T09:52:16.182Z,956.00
2023-04-15T09:53:16.176Z,947.00
2023-04-15T09:54:16.169Z,878.00
2023-04-15T09:55:16.165Z,858.00
2023-04-15T09:56:16.153Z,888.00
2023-04-15T09:57:16.142Z,1078.00
2023-04-15T09:58:16.141Z,1121.00
2023-04-15T09:59:16.130Z,1142.00
2023-04-15T10:00:16.146Z,1158.00
2023-04-15T10:01:16.147Z,1170.00
2023-04-15T10:02:16.185Z,1171.00
2023-04-15T10:03:16.313Z,1167.00
2023-04-15T10:04:16.380Z,1154.00
2023-04-15T10:05:16.101Z,1135.00
2023-04-15T10:06:16.084Z,981.00
2023-04-15T10:07:16.086Z,1016.00
2023-04-15T10:08:16.082Z,1020.00
2023-04-15T10:09:16.140Z,1030.00
2023-04-15T10:10:16.280Z,1044.00
2023-04-15T10:11:17.066Z,1053.00
2023-04-15T10:12:16.297Z,1061.00
2023-04-15T10:13:16.348Z,1067.00
2023-04-15T10:14:16.405Z,1066.00
2023-04-15T10:15:16.464Z,1066.00
2023-04-15T10:16:16.552Z,1066.00
2023-04-15T10:17:16.532Z,1070.00
2023-04-15T10:18:16.580Z,1073.00
2023-04-15T10:19:16.639Z,1076.00
2023-04-15T10:20:16.662Z,1083.00
2023-04-15T10:21:16.701Z,1086.00
2023-04-15T10:22:16.729Z,1089.00
2023-04-15T10:23:16.762Z,1099.00
2023-04-15T10:24:16.800Z,1109.00
2023-04-15T10:25:16.834Z,1119.00
2023-04-15T10:26:16.845Z,1130.00
2023-04-15T10:27:16.878Z,1141.00
2023-04-15T10:28:16.913Z,1150.00
2023-04-15T10:29:16.917Z,1160.00
2023-04-15T10:30:16.960Z,1166.00
2023-04-15T10:31:17.625Z,1177.00
2023-04-15T10:32:16.986Z,1188.00
2023-04-15T10:33:17.009Z,1201.00
2023-04-15T10:34:17.022Z,1210.00
2023-04-15T10:35:17.069Z,1220.00
2023-04-15T10:36:17.069Z,1233.00
2023-04-15T10:37:17.083Z,1244.00
2023-04-15T10:38:17.111Z,1257.00
2023-04-15T10:39:17.122Z,1267.00
2023-04-15T10:40:17.141Z,1272.00
2023-04-15T10:41:19.502Z,1280.00
2023-04-15T10:42:17.151Z,1286.00
2023-04-15T10:43:17.139Z,1292.00
2023-04-15T10:44:17.129Z,1302.00
2023-04-15T10:45:17.131Z,1309.00
2023-04-15T10:46:17.213Z,1312.00
2023-04-15T10:47:17.106Z,1320.00
2023-04-15T10:48:17.104Z,1341.00
2023-04-15T10:49:17.278Z,1357.00
2023-04-15T10:50:17.091Z,1364.00
2023-04-15T10:51:17.109Z,1367.00
2023-04-15T10:52:17.082Z,1365.00
2023-04-15T10:53:17.080Z,1363.00
2023-04-15T10:54:17.072Z,1354.00
2023-04-15T10:55:17.065Z,1329.00
2023-04-15T10:56:17.054Z,1282.00
2023-04-15T10:57:17.050Z,1267.00
2023-04-15T10:58:17.053Z,1255.00
2023-04-15T10:59:17.054Z,1245.00
2023-04-15T11:00:17.120Z,1226.00
2023-04-15T11:01:17.026Z,1188.00
2023-04-15T11:02:17.094Z,1174.00
2023-04-15T11:03:17.100Z,1163.00
2023-04-15T11:04:17.090Z,1152.00
2023-04-15T11:05:17.019Z,1144.00
2023-04-15T11:06:16.981Z,1138.00
2023-04-15T11:07:17.012Z,1133.00
2023-04-15T11:08:16.980Z,1134.00
2023-04-15T11:09:17.057Z,1135.00
2023-04-15T11:10:16.949Z,1136.00
2023-04-15T11:11:16.938Z,1140.00
2023-04-15T11:12:16.941Z,1141.00
2023-04-15T11:13:16.980Z,1142.00
2023-04-15T11:14:16.975Z,1145.00
2023-04-15T11:15:16.924Z,1148.00
2023-04-15T11:16:16.948Z,1150.00
2023-04-15T11:17:16.908Z,1152.00
2023-04-15T11:18:16.943Z,1154.00
2023-04-15T11:19:16.986Z,1155.00
2023-04-15T11:20:17.026Z,1154.00
2023-04-15T11:21:17.061Z,1148.00
2023-04-15T11:22:17.101Z,1143.00
2023-04-15T11:23:17.159Z,1140.00
2023-04-15T11:24:17.161Z,1139.00
2023-04-15T11:25:17.198Z,1138.00
2023-04-15T11:26:17.243Z,1140.00
2023-04-15T11:27:17.275Z,1141.00
2023-04-15T11:28:17.333Z,1142.00
2023-04-15T11:29:17.347Z,1141.00
2023-04-15T11:30:17.397Z,1142.00
2023-04-15T11:31:17.452Z,1142.00
2023-04-15T11:32:17.546Z,1141.00
2023-04-15T11:33:17.506Z,1143.00
2023-04-15T11:34:17.545Z,1142.00
2023-04-15T11:35:17.619Z,1142.00
2023-04-15T11:36:17.631Z,1142.00
2023-04-15T11:37:17.677Z,1142.00
2023-04-15T11:38:17.719Z,1141.00
2023-04-15T11:39:17.777Z,1143.00
2023-04-15T11:40:17.796Z,1141.00
2023-04-15T11:41:17.828Z,1143.00
2023-04-15T11:42:17.873Z,1142.00
2023-04-15T11:43:17.924Z,1140.00
2023-04-15T11:44:17.971Z,1138.00
2023-04-15T11:45:18.006Z,1136.00
2023-04-15T11:46:18.157Z,1134.00
2023-04-15T11:47:18.139Z,1132.00
2023-04-15T11:48:18.123Z,1134.00
2023-04-15T11:49:18.170Z,1135.00
2023-04-15T11:50:18.212Z,1134.00
2023-04-15T11:51:18.257Z,1132.00
2023-04-15T11:52:18.314Z,1130.00
2023-04-15T11:53:18.343Z,1130.00
2023-04-15T11:54:18.381Z,1126.00
2023-04-15T11:55:18.488Z,1127.00
2023-04-15T11:56:18.472Z,1125.00
2023-04-15T11:57:18.520Z,1126.00
2023-04-15T11:58:19.108Z,1123.00
2023-04-15T11:59:18.614Z,1123.00
2023-04-15T12:00:18.675Z,1122.00
2023-04-15T12:01:18.719Z,1118.00
2023-04-15T12:02:18.889Z,1115.00
2023-04-15T12:03:19.143Z,1112.00
2023-04-15T12:04:20.156Z,1111.00
2023-04-15T12:05:18.912Z,1110.00
2023-04-15T12:06:18.844Z,1112.00
2023-04-15T12:07:18.847Z,1113.00
2023-04-15T12:08:18.830Z,1113.00
2023-04-15T12:09:18.832Z,1114.00
2023-04-15T12:10:18.825Z,1116.00
2023-04-15T12:11:18.832Z,1116.00
2023-04-15T12:12:18.804Z,1117.00
2023-04-15T12:13:18.806Z,1117.00
2023-04-15T12:14:18.796Z,1118.00
2023-04-15T12:15:18.792Z,1117.00
2023-04-15T12:16:18.829Z,1113.00
2023-04-15T12:17:18.818Z,1112.00
2023-04-15T12:18:18.850Z,1112.00
2023-04-15T12:19:18.764Z,1113.00
2023-04-15T12:20:18.764Z,1108.00